sensor_id;sensor_type;location;lat;lon;timestamp;P1;durP1;ratioP1;P2;durP2;ratioP2
46447;SDS011;32145;50.390;30.778;2023-09-12T00:01:53;10.70;;;6.88;;
46447;SDS011;32145;50.390;30.778;2023-09-12T00:04:49;13.20;;;7.60;;
46447;SDS011;32145;50.390;30.778;2023-09-12T00:07:46;14.38;;;8.00;;
46447;SDS011;32145;50.390;30.778;2023-09-12T00:10:42;14.82;;;7.68;;
46447;SDS011;32145;50.390;30.778;2023-09-12T00:13:39;12.20;;;7.40;;
46447;SDS011;32145;50.390;30.778;2023-09-12T00:16:36;12.95;;;7.20;;
46447;SDS011;32145;50.390;30.778;2023-09-12T00:19:34;11.80;;;7.40;;
46447;SDS011;32145;50.390;30.778;2023-09-12T00:22:30;11.52;;;7.95;;
46447;SDS011;32145;50.390;30.778;2023-09-12T00:25:26;11.30;;;7.25;;
46447;SDS011;32145;50.390;30.778;2023-09-12T00:28:22;15.48;;;7.63;;
46447;SDS011;32145;50.390;30.778;2023-09-12T00:31:19;17.13;;;8.55;;
46447;SDS011;32145;50.390;30.778;2023-09-12T00:34:15;13.80;;;8.45;;
46447;SDS011;32145;50.390;30.778;2023-09-12T00:37:13;15.30;;;9.02;;
46447;SDS011;32145;50.390;30.778;2023-09-12T00:40:10;16.70;;;8.32;;
46447;SDS011;32145;50.390;30.778;2023-09-12T00:43:06;14.70;;;8.30;;
46447;SDS011;32145;50.390;30.778;2023-09-12T00:46:02;13.60;;;8.00;;
46447;SDS011;32145;50.390;30.778;2023-09-12T00:48:59;13.05;;;8.65;;
46447;SDS011;32145;50.390;30.778;2023-09-12T00:51:56;14.75;;;8.35;;
46447;SDS011;32145;50.390;30.778;2023-09-12T00:54:55;14.20;;;8.85;;
46447;SDS011;32145;50.390;30.778;2023-09-12T00:57:51;16.05;;;9.45;;
46447;SDS011;32145;50.390;30.778;2023-09-12T01:00:49;13.95;;;8.63;;
46447;SDS011;32145;50.390;30.778;2023-09-12T01:03:45;16.10;;;9.57;;
46447;SDS011;32145;50.390;30.778;2023-09-12T01:06:41;16.75;;;10.32;;
46447;SDS011;32145;50.390;30.778;2023-09-12T01:09:39;16.83;;;10.25;;
46447;SDS011;32145;50.390;30.778;2023-09-12T01:12:35;16.90;;;10.32;;
46447;SDS011;32145;50.390;30.778;2023-09-12T01:15:30;18.05;;;10.75;;
46447;SDS011;32145;50.390;30.778;2023-09-12T01:18:24;15.77;;;9.95;;
46447;SDS011;32145;50.390;30.778;2023-09-12T01:21:36;16.88;;;10.18;;
46447;SDS011;32145;50.390;30.778;2023-09-12T01:28:17;16.52;;;10.55;;
46447;SDS011;32145;50.390;30.778;2023-09-12T01:31:15;17.23;;;9.85;;
46447;SDS011;32145;50.390;30.778;2023-09-12T01:34:12;16.73;;;10.60;;
46447;SDS011;32145;50.390;30.778;2023-09-12T01:37:09;18.85;;;10.98;;
46447;SDS011;32145;50.390;30.778;2023-09-12T01:40:05;17.90;;;10.82;;
46447;SDS011;32145;50.390;30.778;2023-09-12T01:43:03;18.65;;;11.48;;
46447;SDS011;32145;50.390;30.778;2023-09-12T01:46:01;16.77;;;10.57;;
46447;SDS011;32145;50.390;30.778;2023-09-12T01:48:58;19.17;;;11.65;;
46447;SDS011;32145;50.390;30.778;2023-09-12T01:51:53;17.92;;;10.63;;
46447;SDS011;32145;50.390;30.778;2023-09-12T01:54:49;21.65;;;11.18;;
46447;SDS011;32145;50.390;30.778;2023-09-12T01:57:44;19.70;;;11.45;;
46447;SDS011;32145;50.390;30.778;2023-09-12T02:00:39;19.90;;;11.55;;
46447;SDS011;32145;50.390;30.778;2023-09-12T02:03:35;19.88;;;10.73;;
46447;SDS011;32145;50.390;30.778;2023-09-12T02:06:29;16.35;;;10.52;;
46447;SDS011;32145;50.390;30.778;2023-09-12T02:09:23;19.08;;;11.60;;
46447;SDS011;32145;50.390;30.778;2023-09-12T02:12:19;19.63;;;11.55;;
46447;SDS011;32145;50.390;30.778;2023-09-12T02:15:16;21.38;;;11.80;;
46447;SDS011;32145;50.390;30.778;2023-09-12T02:18:12;20.08;;;11.38;;
46447;SDS011;32145;50.390;30.778;2023-09-12T02:21:10;16.50;;;10.80;;
46447;SDS011;32145;50.390;30.778;2023-09-12T02:24:04;20.65;;;11.80;;
46447;SDS011;32145;50.390;30.778;2023-09-12T02:26:59;18.25;;;11.57;;
46447;SDS011;32145;50.390;30.778;2023-09-12T02:29:53;20.00;;;11.70;;
46447;SDS011;32145;50.390;30.778;2023-09-12T02:32:47;18.77;;;11.15;;
46447;SDS011;32145;50.390;30.778;2023-09-12T02:35:42;16.48;;;11.13;;
46447;SDS011;32145;50.390;30.778;2023-09-12T02:38:37;17.98;;;11.50;;
46447;SDS011;32145;50.390;30.778;2023-09-12T02:41:31;20.05;;;11.80;;
46447;SDS011;32145;50.390;30.778;2023-09-12T02:44:26;17.70;;;11.93;;
46447;SDS011;32145;50.390;30.778;2023-09-12T02:47:20;18.92;;;12.05;;
46447;SDS011;32145;50.390;30.778;2023-09-12T02:50:14;16.23;;;11.23;;
46447;SDS011;32145;50.390;30.778;2023-09-12T02:53:08;20.38;;;12.65;;
46447;SDS011;32145;50.390;30.778;2023-09-12T02:56:04;20.20;;;11.82;;
46447;SDS011;32145;50.390;30.778;2023-09-12T02:58:58;18.10;;;11.55;;
46447;SDS011;32145;50.390;30.778;2023-09-12T03:01:53;22.10;;;12.73;;
46447;SDS011;32145;50.390;30.778;2023-09-12T03:04:47;18.42;;;11.80;;
46447;SDS011;32145;50.390;30.778;2023-09-12T03:07:43;18.88;;;11.98;;
46447;SDS011;32145;50.390;30.778;2023-09-12T03:10:39;20.38;;;12.77;;
46447;SDS011;32145;50.390;30.778;2023-09-12T03:13:36;19.90;;;13.07;;
46447;SDS011;32145;50.390;30.778;2023-09-12T03:16:31;19.77;;;12.50;;
46447;SDS011;32145;50.390;30.778;2023-09-12T03:19:25;18.33;;;12.63;;
46447;SDS011;32145;50.390;30.778;2023-09-12T03:22:19;22.90;;;13.35;;
46447;SDS011;32145;50.390;30.778;2023-09-12T03:25:13;20.35;;;12.90;;
46447;SDS011;32145;50.390;30.778;2023-09-12T03:28:08;21.75;;;13.38;;
46447;SDS011;32145;50.390;30.778;2023-09-12T03:31:06;21.42;;;12.73;;
46447;SDS011;32145;50.390;30.778;2023-09-12T03:34:04;19.80;;;13.25;;
46447;SDS011;32145;50.390;30.778;2023-09-12T03:37:00;20.10;;;12.90;;
46447;SDS011;32145;50.390;30.778;2023-09-12T03:39:56;20.85;;;12.93;;
46447;SDS011;32145;50.390;30.778;2023-09-12T03:42:53;20.00;;;12.30;;
46447;SDS011;32145;50.390;30.778;2023-09-12T03:45:49;22.70;;;12.73;;
46447;SDS011;32145;50.390;30.778;2023-09-12T03:48:47;19.23;;;12.20;;
46447;SDS011;32145;50.390;30.778;2023-09-12T03:51:43;21.60;;;12.55;;
46447;SDS011;32145;50.390;30.778;2023-09-12T03:54:39;18.65;;;12.75;;
46447;SDS011;32145;50.390;30.778;2023-09-12T03:57:33;18.05;;;12.25;;
46447;SDS011;32145;50.390;30.778;2023-09-12T04:00:28;18.88;;;12.48;;
46447;SDS011;32145;50.390;30.778;2023-09-12T04:03:22;20.67;;;12.80;;
46447;SDS011;32145;50.390;30.778;2023-09-12T04:06:17;19.55;;;12.45;;
46447;SDS011;32145;50.390;30.778;2023-09-12T04:09:12;18.73;;;12.10;;
46447;SDS011;32145;50.390;30.778;2023-09-12T04:12:06;20.60;;;12.85;;
46447;SDS011;32145;50.390;30.778;2023-09-12T04:15:01;20.35;;;12.52;;
46447;SDS011;32145;50.390;30.778;2023-09-12T04:17:55;18.45;;;12.15;;
46447;SDS011;32145;50.390;30.778;2023-09-12T04:20:50;20.23;;;12.70;;
46447;SDS011;32145;50.390;30.778;2023-09-12T04:23:45;18.77;;;12.48;;
46447;SDS011;32145;50.390;30.778;2023-09-12T04:26:40;23.98;;;12.40;;
46447;SDS011;32145;50.390;30.778;2023-09-12T04:29:34;19.63;;;12.80;;
46447;SDS011;32145;50.390;30.778;2023-09-12T04:32:28;19.95;;;12.45;;
46447;SDS011;32145;50.390;30.778;2023-09-12T04:35:23;19.13;;;12.23;;
46447;SDS011;32145;50.390;30.778;2023-09-12T04:38:19;20.02;;;12.13;;
46447;SDS011;32145;50.390;30.778;2023-09-12T04:41:17;17.63;;;12.35;;
46447;SDS011;32145;50.390;30.778;2023-09-12T04:44:13;23.33;;;12.10;;
46447;SDS011;32145;50.390;30.778;2023-09-12T04:47:09;18.98;;;12.45;;
46447;SDS011;32145;50.390;30.778;2023-09-12T04:50:04;20.70;;;12.75;;
46447;SDS011;32145;50.390;30.778;2023-09-12T04:52:59;20.73;;;13.27;;
46447;SDS011;32145;50.390;30.778;2023-09-12T04:55:53;19.40;;;13.43;;
46447;SDS011;32145;50.390;30.778;2023-09-12T04:58:49;25.27;;;13.73;;
46447;SDS011;32145;50.390;30.778;2023-09-12T05:01:45;24.95;;;13.40;;
46447;SDS011;32145;50.390;30.778;2023-09-12T05:04:42;21.73;;;13.23;;
46447;SDS011;32145;50.390;30.778;2023-09-12T05:07:38;21.10;;;13.93;;
46447;SDS011;32145;50.390;30.778;2023-09-12T05:10:35;26.20;;;14.80;;
46447;SDS011;32145;50.390;30.778;2023-09-12T05:13:25;21.65;;;13.77;;
46447;SDS011;32145;50.390;30.778;2023-09-12T05:16:21;27.20;;;14.57;;
46447;SDS011;32145;50.390;30.778;2023-09-12T05:19:15;21.58;;;13.85;;
46447;SDS011;32145;50.390;30.778;2023-09-12T05:21:59;22.15;;;13.70;;
46447;SDS011;32145;50.390;30.778;2023-09-12T05:24:43;25.00;;;13.80;;
46447;SDS011;32145;50.390;30.778;2023-09-12T05:27:37;21.13;;;13.98;;
46447;SDS011;32145;50.390;30.778;2023-09-12T05:30:21;22.45;;;13.75;;
46447;SDS011;32145;50.390;30.778;2023-09-12T05:33:18;29.60;;;13.38;;
46447;SDS011;32145;50.390;30.778;2023-09-12T05:36:03;23.92;;;13.63;;
46447;SDS011;32145;50.390;30.778;2023-09-12T05:38:47;23.48;;;13.50;;
46447;SDS011;32145;50.390;30.778;2023-09-12T05:41:43;26.35;;;13.48;;
46447;SDS011;32145;50.390;30.778;2023-09-12T05:44:40;26.83;;;13.13;;
46447;SDS011;32145;50.390;30.778;2023-09-12T05:47:35;24.48;;;13.68;;
46447;SDS011;32145;50.390;30.778;2023-09-12T05:50:20;20.70;;;13.95;;
46447;SDS011;32145;50.390;30.778;2023-09-12T05:53:17;23.35;;;13.63;;
46447;SDS011;32145;50.390;30.778;2023-09-12T05:56:01;30.83;;;13.82;;
46447;SDS011;32145;50.390;30.778;2023-09-12T05:58:55;26.92;;;14.10;;
46447;SDS011;32145;50.390;30.778;2023-09-12T06:01:39;23.08;;;13.60;;
46447;SDS011;32145;50.390;30.778;2023-09-12T06:04:23;21.63;;;13.75;;
46447;SDS011;32145;50.390;30.778;2023-09-12T06:07:18;20.50;;;13.20;;
46447;SDS011;32145;50.390;30.778;2023-09-12T06:10:12;22.67;;;13.57;;
46447;SDS011;32145;50.390;30.778;2023-09-12T06:12:56;23.70;;;13.30;;
46447;SDS011;32145;50.390;30.778;2023-09-12T06:15:40;24.35;;;13.15;;
46447;SDS011;32145;50.390;30.778;2023-09-12T06:18:35;23.33;;;13.27;;
46447;SDS011;32145;50.390;30.778;2023-09-12T06:21:18;23.73;;;13.30;;
46447;SDS011;32145;50.390;30.778;2023-09-12T06:24:10;19.45;;;13.00;;
46447;SDS011;32145;50.390;30.778;2023-09-12T06:26:55;17.75;;;12.15;;
46447;SDS011;32145;50.390;30.778;2023-09-12T06:29:52;18.83;;;11.98;;
46447;SDS011;32145;50.390;30.778;2023-09-12T06:32:48;16.83;;;11.57;;
46447;SDS011;32145;50.390;30.778;2023-09-12T06:35:32;22.05;;;12.48;;
46447;SDS011;32145;50.390;30.778;2023-09-12T06:38:26;19.02;;;12.32;;
46447;SDS011;32145;50.390;30.778;2023-09-12T06:41:22;18.48;;;11.88;;
46447;SDS011;32145;50.390;30.778;2023-09-12T06:44:06;16.85;;;11.30;;
46447;SDS011;32145;50.390;30.778;2023-09-12T06:46:50;17.30;;;11.23;;
46447;SDS011;32145;50.390;30.778;2023-09-12T06:49:45;21.65;;;11.13;;
46447;SDS011;32145;50.390;30.778;2023-09-12T06:52:41;16.70;;;11.18;;
46447;SDS011;32145;50.390;30.778;2023-09-12T06:55:25;15.88;;;10.77;;
46447;SDS011;32145;50.390;30.778;2023-09-12T06:58:13;17.02;;;10.32;;
46447;SDS011;32145;50.390;30.778;2023-09-12T07:01:07;14.43;;;10.07;;
46447;SDS011;32145;50.390;30.778;2023-09-12T07:03:51;13.85;;;9.85;;
46447;SDS011;32145;50.390;30.778;2023-09-12T07:06:46;13.15;;;9.77;;
46447;SDS011;32145;50.390;30.778;2023-09-12T07:09:30;14.13;;;9.70;;
46447;SDS011;32145;50.390;30.778;2023-09-12T07:12:24;14.88;;;9.60;;
46447;SDS011;32145;50.390;30.778;2023-09-12T07:15:10;12.88;;;8.52;;
46447;SDS011;32145;50.390;30.778;2023-09-12T07:17:54;13.30;;;8.05;;
46447;SDS011;32145;50.390;30.778;2023-09-12T07:20:38;15.93;;;9.20;;
46447;SDS011;32145;50.390;30.778;2023-09-12T07:23:26;13.90;;;7.78;;
46447;SDS011;32145;50.390;30.778;2023-09-12T07:26:22;12.30;;;8.18;;
46447;SDS011;32145;50.390;30.778;2023-09-12T07:29:13;11.68;;;7.65;;
46447;SDS011;32145;50.390;30.778;2023-09-12T07:32:08;13.55;;;7.88;;
46447;SDS011;32145;50.390;30.778;2023-09-12T07:34:52;10.73;;;7.60;;
46447;SDS011;32145;50.390;30.778;2023-09-12T07:37:43;12.68;;;7.72;;
46447;SDS011;32145;50.390;30.778;2023-09-12T07:40:37;12.18;;;7.75;;
46447;SDS011;32145;50.390;30.778;2023-09-12T07:43:21;12.63;;;7.10;;
46447;SDS011;32145;50.390;30.778;2023-09-12T07:46:17;15.82;;;7.28;;
46447;SDS011;32145;50.390;30.778;2023-09-12T07:49:03;11.32;;;7.45;;
46447;SDS011;32145;50.390;30.778;2023-09-12T07:51:57;12.00;;;6.47;;
46447;SDS011;32145;50.390;30.778;2023-09-12T07:54:51;11.35;;;6.72;;
46447;SDS011;32145;50.390;30.778;2023-09-12T07:57:46;10.60;;;6.85;;
46447;SDS011;32145;50.390;30.778;2023-09-12T08:00:30;10.10;;;6.68;;
46447;SDS011;32145;50.390;30.778;2023-09-12T08:03:14;12.98;;;7.55;;
46447;SDS011;32145;50.390;30.778;2023-09-12T08:05:59;9.77;;;6.40;;
46447;SDS011;32145;50.390;30.778;2023-09-12T08:08:43;11.65;;;5.95;;
46447;SDS011;32145;50.390;30.778;2023-09-12T08:11:40;12.15;;;5.43;;
46447;SDS011;32145;50.390;30.778;2023-09-12T08:14:36;8.48;;;5.25;;
46447;SDS011;32145;50.390;30.778;2023-09-12T08:17:27;8.18;;;4.80;;
46447;SDS011;32145;50.390;30.778;2023-09-12T08:20:11;12.88;;;5.22;;
46447;SDS011;32145;50.390;30.778;2023-09-12T08:23:08;15.65;;;7.43;;
46447;SDS011;32145;50.390;30.778;2023-09-12T08:25:53;8.85;;;4.55;;
46447;SDS011;32145;50.390;30.778;2023-09-12T08:28:47;9.95;;;4.68;;
46447;SDS011;32145;50.390;30.778;2023-09-12T08:31:31;7.57;;;4.22;;
46447;SDS011;32145;50.390;30.778;2023-09-12T08:34:27;5.75;;;3.75;;
46447;SDS011;32145;50.390;30.778;2023-09-12T08:37:23;7.57;;;3.58;;
46447;SDS011;32145;50.390;30.778;2023-09-12T08:40:09;10.13;;;3.95;;
46447;SDS011;32145;50.390;30.778;2023-09-12T08:42:55;6.35;;;3.58;;
46447;SDS011;32145;50.390;30.778;2023-09-12T08:45:53;5.88;;;4.07;;
46447;SDS011;32145;50.390;30.778;2023-09-12T08:48:50;7.25;;;4.25;;
46447;SDS011;32145;50.390;30.778;2023-09-12T08:51:34;8.55;;;3.70;;
46447;SDS011;32145;50.390;30.778;2023-09-12T08:54:29;7.25;;;3.90;;
46447;SDS011;32145;50.390;30.778;2023-09-12T08:57:14;11.05;;;4.20;;
46447;SDS011;32145;50.390;30.778;2023-09-12T09:00:10;7.35;;;3.42;;
46447;SDS011;32145;50.390;30.778;2023-09-12T09:03:01;6.15;;;3.78;;
46447;SDS011;32145;50.390;30.778;2023-09-12T09:05:45;8.13;;;3.78;;
46447;SDS011;32145;50.390;30.778;2023-09-12T09:08:38;13.02;;;4.00;;
46447;SDS011;32145;50.390;30.778;2023-09-12T09:11:23;6.47;;;3.72;;
46447;SDS011;32145;50.390;30.778;2023-09-12T09:14:20;6.22;;;4.00;;
46447;SDS011;32145;50.390;30.778;2023-09-12T09:17:05;7.15;;;3.55;;
46447;SDS011;32145;50.390;30.778;2023-09-12T09:19:59;9.80;;;3.67;;
46447;SDS011;32145;50.390;30.778;2023-09-12T09:22:45;7.20;;;3.40;;
46447;SDS011;32145;50.390;30.778;2023-09-12T09:25:40;8.50;;;3.72;;
46447;SDS011;32145;50.390;30.778;2023-09-12T09:28:25;6.13;;;3.78;;
46447;SDS011;32145;50.390;30.778;2023-09-12T09:31:11;6.47;;;3.20;;
46447;SDS011;32145;50.390;30.778;2023-09-12T09:34:11;6.47;;;3.20;;
46447;SDS011;32145;50.390;30.778;2023-09-12T09:36:57;5.10;;;3.38;;
46447;SDS011;32145;50.390;30.778;2023-09-12T09:39:51;5.13;;;3.03;;
46447;SDS011;32145;50.390;30.778;2023-09-12T09:42:35;9.07;;;4.05;;
46447;SDS011;32145;50.390;30.778;2023-09-12T09:45:21;11.85;;;3.88;;
46447;SDS011;32145;50.390;30.778;2023-09-12T09:48:20;7.43;;;3.35;;
46447;SDS011;32145;50.390;30.778;2023-09-12T09:51:14;8.82;;;3.85;;
46447;SDS011;32145;50.390;30.778;2023-09-12T09:54:09;8.15;;;4.00;;
46447;SDS011;32145;50.390;30.778;2023-09-12T09:57:03;7.35;;;3.75;;
46447;SDS011;32145;50.390;30.778;2023-09-12T09:59:48;8.70;;;3.42;;
46447;SDS011;32145;50.390;30.778;2023-09-12T10:02:43;4.85;;;2.80;;
46447;SDS011;32145;50.390;30.778;2023-09-12T10:05:31;6.28;;;3.45;;
46447;SDS011;32145;50.390;30.778;2023-09-12T10:08:26;6.13;;;3.13;;
46447;SDS011;32145;50.390;30.778;2023-09-12T10:11:23;11.38;;;5.93;;
46447;SDS011;32145;50.390;30.778;2023-09-12T10:14:11;6.97;;;3.53;;
46447;SDS011;32145;50.390;30.778;2023-09-12T10:17:00;9.57;;;3.70;;
46447;SDS011;32145;50.390;30.778;2023-09-12T10:19:54;5.10;;;3.10;;
46447;SDS011;32145;50.390;30.778;2023-09-12T10:22:43;6.18;;;2.92;;
46447;SDS011;32145;50.390;30.778;2023-09-12T10:25:45;8.25;;;3.10;;
46447;SDS011;32145;50.390;30.778;2023-09-12T10:28:32;6.13;;;3.22;;
46447;SDS011;32145;50.390;30.778;2023-09-12T10:31:27;5.88;;;3.30;;
46447;SDS011;32145;50.390;30.778;2023-09-12T10:34:21;4.35;;;3.28;;
46447;SDS011;32145;50.390;30.778;2023-09-12T10:37:09;8.02;;;3.50;;
46447;SDS011;32145;50.390;30.778;2023-09-12T10:39:54;6.50;;;3.33;;
46447;SDS011;32145;50.390;30.778;2023-09-12T10:42:40;6.95;;;3.45;;
46447;SDS011;32145;50.390;30.778;2023-09-12T10:45:26;4.95;;;2.85;;
46447;SDS011;32145;50.390;30.778;2023-09-12T10:48:11;6.28;;;3.03;;
46447;SDS011;32145;50.390;30.778;2023-09-12T10:51:06;5.90;;;3.10;;
46447;SDS011;32145;50.390;30.778;2023-09-12T10:53:52;10.77;;;3.67;;
46447;SDS011;32145;50.390;30.778;2023-09-12T10:56:38;7.40;;;3.00;;
46447;SDS011;32145;50.390;30.778;2023-09-12T10:59:34;5.90;;;3.33;;
46447;SDS011;32145;50.390;30.778;2023-09-12T11:02:28;4.97;;;3.17;;
46447;SDS011;32145;50.390;30.778;2023-09-12T11:05:37;5.78;;;3.08;;
46447;SDS011;32145;50.390;30.778;2023-09-12T11:08:43;6.60;;;3.30;;
46447;SDS011;32145;50.390;30.778;2023-09-12T11:11:27;7.30;;;3.10;;
46447;SDS011;32145;50.390;30.778;2023-09-12T11:14:23;5.60;;;3.10;;
46447;SDS011;32145;50.390;30.778;2023-09-12T11:17:21;5.88;;;3.00;;
46447;SDS011;32145;50.390;30.778;2023-09-12T11:20:06;5.73;;;2.90;;
46447;SDS011;32145;50.390;30.778;2023-09-12T11:23:09;6.78;;;2.88;;
46447;SDS011;32145;50.390;30.778;2023-09-12T11:26:06;6.47;;;3.15;;
46447;SDS011;32145;50.390;30.778;2023-09-12T11:29:10;6.95;;;3.10;;
46447;SDS011;32145;50.390;30.778;2023-09-12T11:31:57;9.93;;;3.45;;
46447;SDS011;32145;50.390;30.778;2023-09-12T11:34:42;5.93;;;2.97;;
46447;SDS011;32145;50.390;30.778;2023-09-12T11:37:27;4.30;;;2.97;;
46447;SDS011;32145;50.390;30.778;2023-09-12T11:40:23;7.13;;;3.03;;
46447;SDS011;32145;50.390;30.778;2023-09-12T11:43:19;5.45;;;3.00;;
46447;SDS011;32145;50.390;30.778;2023-09-12T11:46:17;5.10;;;2.90;;
46447;SDS011;32145;50.390;30.778;2023-09-12T11:49:02;4.15;;;2.97;;
46447;SDS011;32145;50.390;30.778;2023-09-12T11:51:47;8.43;;;3.25;;
46447;SDS011;32145;50.390;30.778;2023-09-12T11:54:47;5.07;;;3.00;;
46447;SDS011;32145;50.390;30.778;2023-09-12T11:57:41;7.72;;;2.90;;
46447;SDS011;32145;50.390;30.778;2023-09-12T12:00:36;4.82;;;3.00;;
46447;SDS011;32145;50.390;30.778;2023-09-12T12:03:32;5.63;;;2.88;;
46447;SDS011;32145;50.390;30.778;2023-09-12T12:06:32;5.60;;;2.60;;
46447;SDS011;32145;50.390;30.778;2023-09-12T12:09:26;6.03;;;3.08;;
46447;SDS011;32145;50.390;30.778;2023-09-12T12:12:11;7.88;;;2.90;;
46447;SDS011;32145;50.390;30.778;2023-09-12T12:14:56;6.60;;;3.10;;
46447;SDS011;32145;50.390;30.778;2023-09-12T12:17:53;7.80;;;3.20;;
46447;SDS011;32145;50.390;30.778;2023-09-12T12:20:38;7.78;;;3.00;;
46447;SDS011;32145;50.390;30.778;2023-09-12T12:23:23;6.40;;;2.78;;
46447;SDS011;32145;50.390;30.778;2023-09-12T12:26:07;4.75;;;2.63;;
46447;SDS011;32145;50.390;30.778;2023-09-12T12:29:03;5.97;;;2.85;;
46447;SDS011;32145;50.390;30.778;2023-09-12T12:31:47;7.35;;;2.92;;
46447;SDS011;32145;50.390;30.778;2023-09-12T12:34:41;7.35;;;2.78;;
46447;SDS011;32145;50.390;30.778;2023-09-12T12:37:30;5.80;;;2.70;;
46447;SDS011;32145;50.390;30.778;2023-09-12T12:40:16;4.65;;;2.67;;
46447;SDS011;32145;50.390;30.778;2023-09-12T12:43:01;5.63;;;2.33;;
46447;SDS011;32145;50.390;30.778;2023-09-12T12:45:52;7.68;;;2.55;;
46447;SDS011;32145;50.390;30.778;2023-09-12T12:48:47;5.75;;;2.83;;
46447;SDS011;32145;50.390;30.778;2023-09-12T12:51:31;6.80;;;2.80;;
46447;SDS011;32145;50.390;30.778;2023-09-12T12:54:23;5.53;;;2.70;;
46447;SDS011;32145;50.390;30.778;2023-09-12T12:57:19;4.22;;;2.30;;
46447;SDS011;32145;50.390;30.778;2023-09-12T13:00:06;6.00;;;2.92;;
46447;SDS011;32145;50.390;30.778;2023-09-12T13:02:51;5.50;;;2.47;;
46447;SDS011;32145;50.390;30.778;2023-09-12T13:05:45;6.25;;;2.53;;
46447;SDS011;32145;50.390;30.778;2023-09-12T13:08:29;5.78;;;2.60;;
46447;SDS011;32145;50.390;30.778;2023-09-12T13:11:23;5.20;;;2.58;;
46447;SDS011;32145;50.390;30.778;2023-09-12T13:14:21;4.68;;;2.70;;
46447;SDS011;32145;50.390;30.778;2023-09-12T13:17:05;6.85;;;2.47;;
46447;SDS011;32145;50.390;30.778;2023-09-12T13:20:00;6.55;;;2.63;;
46447;SDS011;32145;50.390;30.778;2023-09-12T13:22:43;5.45;;;2.53;;
46447;SDS011;32145;50.390;30.778;2023-09-12T13:25:40;6.38;;;2.20;;
46447;SDS011;32145;50.390;30.778;2023-09-12T13:28:30;4.35;;;2.42;;
46447;SDS011;32145;50.390;30.778;2023-09-12T13:31:26;5.90;;;2.22;;
46447;SDS011;32145;50.390;30.778;2023-09-12T13:34:10;5.72;;;2.30;;
46447;SDS011;32145;50.390;30.778;2023-09-12T13:37:06;4.82;;;2.28;;
46447;SDS011;32145;50.390;30.778;2023-09-12T13:39:57;4.78;;;2.60;;
46447;SDS011;32145;50.390;30.778;2023-09-12T13:42:51;4.53;;;2.70;;
46447;SDS011;32145;50.390;30.778;2023-09-12T13:45:45;5.57;;;2.60;;
46447;SDS011;32145;50.390;30.778;2023-09-12T13:48:31;7.30;;;2.40;;
46447;SDS011;32145;50.390;30.778;2023-09-12T13:51:15;4.25;;;2.17;;
46447;SDS011;32145;50.390;30.778;2023-09-12T13:54:09;3.33;;;2.17;;
46447;SDS011;32145;50.390;30.778;2023-09-12T13:57:04;8.68;;;2.50;;
46447;SDS011;32145;50.390;30.778;2023-09-12T13:59:48;8.02;;;2.45;;
46447;SDS011;32145;50.390;30.778;2023-09-12T14:02:44;6.82;;;2.42;;
46447;SDS011;32145;50.390;30.778;2023-09-12T14:05:29;3.40;;;2.00;;
46447;SDS011;32145;50.390;30.778;2023-09-12T14:08:26;5.72;;;2.15;;
46447;SDS011;32145;50.390;30.778;2023-09-12T14:11:16;8.10;;;2.60;;
46447;SDS011;32145;50.390;30.778;2023-09-12T14:14:11;6.53;;;2.88;;
46447;SDS011;32145;50.390;30.778;2023-09-12T14:16:55;4.28;;;2.30;;
46447;SDS011;32145;50.390;30.778;2023-09-12T14:19:39;4.70;;;2.50;;
46447;SDS011;32145;50.390;30.778;2023-09-12T14:22:37;4.82;;;2.80;;
46447;SDS011;32145;50.390;30.778;2023-09-12T14:25:21;4.15;;;2.60;;
46447;SDS011;32145;50.390;30.778;2023-09-12T14:28:05;6.45;;;2.25;;
46447;SDS011;32145;50.390;30.778;2023-09-12T14:31:00;6.13;;;2.47;;
46447;SDS011;32145;50.390;30.778;2023-09-12T14:33:44;4.68;;;2.30;;
46447;SDS011;32145;50.390;30.778;2023-09-12T14:36:40;4.80;;;2.50;;
46447;SDS011;32145;50.390;30.778;2023-09-12T14:39:31;4.80;;;2.40;;
46447;SDS011;32145;50.390;30.778;2023-09-12T14:42:15;6.97;;;2.70;;
46447;SDS011;32145;50.390;30.778;2023-09-12T14:45:12;6.32;;;2.50;;
46447;SDS011;32145;50.390;30.778;2023-09-12T14:48:09;5.22;;;2.28;;
46447;SDS011;32145;50.390;30.778;2023-09-12T14:50:53;6.25;;;2.78;;
46447;SDS011;32145;50.390;30.778;2023-09-12T14:53:47;6.35;;;2.55;;
46447;SDS011;32145;50.390;30.778;2023-09-12T14:56:43;5.47;;;2.38;;
46447;SDS011;32145;50.390;30.778;2023-09-12T14:59:27;6.80;;;2.45;;
46447;SDS011;32145;50.390;30.778;2023-09-12T15:02:24;4.40;;;2.35;;
46447;SDS011;32145;50.390;30.778;2023-09-12T15:05:21;7.55;;;2.80;;
46447;SDS011;32145;50.390;30.778;2023-09-12T15:08:11;7.00;;;2.63;;
46447;SDS011;32145;50.390;30.778;2023-09-12T15:10:55;8.18;;;2.65;;
46447;SDS011;32145;50.390;30.778;2023-09-12T15:13:53;9.25;;;3.03;;
46447;SDS011;32145;50.390;30.778;2023-09-12T15:16:37;7.90;;;2.65;;
46447;SDS011;32145;50.390;30.778;2023-09-12T15:19:20;9.25;;;2.72;;
46447;SDS011;32145;50.390;30.778;2023-09-12T15:22:04;12.68;;;3.58;;
46447;SDS011;32145;50.390;30.778;2023-09-12T15:24:59;6.28;;;2.80;;
46447;SDS011;32145;50.390;30.778;2023-09-12T15:27:46;8.13;;;2.97;;
46447;SDS011;32145;50.390;30.778;2023-09-12T15:30:31;8.77;;;2.90;;
46447;SDS011;32145;50.390;30.778;2023-09-12T15:33:25;8.18;;;2.97;;
46447;SDS011;32145;50.390;30.778;2023-09-12T15:36:09;5.63;;;2.92;;
46447;SDS011;32145;50.390;30.778;2023-09-12T15:39:06;10.30;;;4.85;;
46447;SDS011;32145;50.390;30.778;2023-09-12T15:41:56;16.63;;;7.80;;
46447;SDS011;32145;50.390;30.778;2023-09-12T15:44:51;20.17;;;10.63;;
46447;SDS011;32145;50.390;30.778;2023-09-12T15:47:46;20.27;;;8.70;;
46447;SDS011;32145;50.390;30.778;2023-09-12T15:50:30;29.50;;;15.90;;
46447;SDS011;32145;50.390;30.778;2023-09-12T15:53:14;39.90;;;23.13;;
46447;SDS011;32145;50.390;30.778;2023-09-12T15:55:58;31.83;;;18.63;;
46447;SDS011;32145;50.390;30.778;2023-09-12T15:58:53;24.08;;;15.90;;
46447;SDS011;32145;50.390;30.778;2023-09-12T16:01:37;24.88;;;16.17;;
46447;SDS011;32145;50.390;30.778;2023-09-12T16:04:34;21.25;;;13.50;;
46447;SDS011;32145;50.390;30.778;2023-09-12T16:07:31;21.23;;;14.52;;
46447;SDS011;32145;50.390;30.778;2023-09-12T16:10:21;16.00;;;10.15;;
46447;SDS011;32145;50.390;30.778;2023-09-12T16:13:16;15.48;;;6.70;;
46447;SDS011;32145;50.390;30.778;2023-09-12T16:16:10;20.00;;;8.30;;
46447;SDS011;32145;50.390;30.778;2023-09-12T16:19:04;12.82;;;5.85;;
46447;SDS011;32145;50.390;30.778;2023-09-12T16:22:00;10.77;;;5.13;;
46447;SDS011;32145;50.390;30.778;2023-09-12T16:24:56;18.67;;;6.13;;
46447;SDS011;32145;50.390;30.778;2023-09-12T16:27:52;13.65;;;4.95;;
46447;SDS011;32145;50.390;30.778;2023-09-12T16:30:42;12.45;;;4.22;;
46447;SDS011;32145;50.390;30.778;2023-09-12T16:33:37;13.50;;;4.25;;
46447;SDS011;32145;50.390;30.778;2023-09-12T16:36:31;12.32;;;3.70;;
46447;SDS011;32145;50.390;30.778;2023-09-12T16:39:18;17.90;;;5.20;;
46447;SDS011;32145;50.390;30.778;2023-09-12T16:42:12;11.57;;;5.45;;
46447;SDS011;32145;50.390;30.778;2023-09-12T16:45:07;17.52;;;4.70;;
46447;SDS011;32145;50.390;30.778;2023-09-12T16:48:02;14.27;;;4.95;;
46447;SDS011;32145;50.390;30.778;2023-09-12T16:50:57;17.00;;;6.32;;
46447;SDS011;32145;50.390;30.778;2023-09-12T16:53:41;16.02;;;6.90;;